createdAt,value
2023-01-08T00:01:41.860Z,101744.22
2023-01-08T00:04:10.690Z,101749.47
2023-01-08T00:06:39.294Z,101745.88
2023-01-08T00:09:07.885Z,101742.38
2023-01-08T00:11:36.491Z,101747.56
2023-01-08T00:14:05.176Z,101749.56
2023-01-08T00:16:35.245Z,101751.16
2023-01-08T00:19:03.884Z,101744.31
2023-01-08T00:21:32.464Z,101740.16
2023-01-08T00:24:01.043Z,101729.75
2023-01-08T00:26:29.772Z,101730.66
2023-01-08T00:28:58.405Z,101727.44
2023-01-08T00:31:26.887Z,101715.09
2023-01-08T00:33:57.341Z,101711.72
2023-01-08T00:36:26.191Z,101710.81
2023-01-08T00:38:54.832Z,101718.44
2023-01-08T00:41:23.337Z,101716.81
2023-01-08T00:43:51.872Z,101714.31
2023-01-08T00:46:20.642Z,101709.19
2023-01-08T00:48:49.297Z,101710.78
2023-01-08T00:51:19.697Z,101709.13
2023-01-08T00:53:48.305Z,101704.84
2023-01-08T00:56:16.787Z,101705.59
2023-01-08T00:58:45.483Z,101690.84
2023-01-08T01:01:16.281Z,101687.38
2023-01-08T01:03:45.307Z,101693.50
2023-01-08T01:06:15.195Z,101687.34
2023-01-08T01:08:45.598Z,101691.59
2023-01-08T01:11:20.144Z,101686.63
2023-01-08T01:13:49.113Z,101689.16
2023-01-08T01:16:18.088Z,101688.19
2023-01-08T01:18:46.655Z,101692.66
2023-01-08T01:21:21.326Z,101693.34
2023-01-08T01:23:51.817Z,101691.78
2023-01-08T01:26:22.532Z,101698.63
2023-01-08T01:28:52.787Z,101692.47
2023-01-08T01:31:22.209Z,101692.38
2023-01-08T01:33:52.224Z,101688.09
2023-01-08T01:36:23.752Z,101683.78
2023-01-08T01:38:55.752Z,101681.44
2023-01-08T01:41:27.849Z,101684.91
2023-01-08T01:43:58.061Z,101678.84
2023-01-08T01:46:38.225Z,101672.75
2023-01-08T01:49:11.623Z,101674.31
2023-01-08T01:51:45.491Z,101673.53
2023-01-08T01:54:16.710Z,101676.22
2023-01-08T01:56:46.874Z,101668.63
2023-01-08T01:59:15.696Z,101669.63
2023-01-08T02:01:44.858Z,101664.63
2023-01-08T02:04:14.556Z,101665.38
2023-01-08T02:06:50.219Z,101661.19
2023-01-08T02:09:28.768Z,101657.66
2023-01-08T02:12:20.272Z,101656.75
2023-01-08T02:15:04.466Z,101660.25
2023-01-08T02:17:41.251Z,101653.50
2023-01-08T02:20:13.554Z,101651.81
2023-01-08T02:22:58.592Z,101656.09
2023-01-08T02:25:46.542Z,101651.94
2023-01-08T02:28:18.115Z,101647.50
2023-01-08T02:30:47.706Z,101645.88
2023-01-08T02:33:16.614Z,101651.13
2023-01-08T02:35:50.316Z,101650.38
2023-01-08T02:38:20.035Z,101648.69
2023-01-08T02:40:56.205Z,101643.50
2023-01-08T02:43:32.235Z,101642.66
2023-01-08T02:46:03.430Z,101641.72
2023-01-08T02:48:38.412Z,101641.00
2023-01-08T02:51:10.210Z,101637.53
2023-01-08T02:53:43.461Z,101640.16
2023-01-08T02:56:17.212Z,101635.63
2023-01-08T02:58:48.735Z,101621.16
2023-01-08T03:01:19.564Z,101615.13
2023-01-08T03:03:50.937Z,101606.25
2023-01-08T03:06:21.500Z,101603.72
2023-01-08T03:08:53.390Z,101605.44
2023-01-08T03:11:24.096Z,101609.78
2023-01-08T03:13:59.336Z,101612.38
2023-01-08T03:16:34.673Z,101613.22
2023-01-08T03:19:10.099Z,101606.47
2023-01-08T03:21:40.335Z,101601.34
2023-01-08T03:24:13.751Z,101590.94
2023-01-08T03:26:45.890Z,101594.38
2023-01-08T03:29:19.386Z,101590.09
2023-01-08T03:31:49.155Z,101584.13
2023-01-08T03:34:18.241Z,101585.88
2023-01-08T03:36:51.239Z,101571.94
2023-01-08T03:39:23.705Z,101576.22
2023-01-08T03:41:55.451Z,101567.66
2023-01-08T03:44:25.514Z,101566.72
2023-01-08T03:46:57.338Z,101565.91
2023-01-08T03:49:30.068Z,101559.84
2023-01-08T03:51:58.883Z,101560.75
2023-01-08T03:54:33.067Z,101557.22
2023-01-08T03:57:01.819Z,101573.69
2023-01-08T03:59:31.840Z,101568.44
2023-01-08T04:02:01.054Z,101551.31
2023-01-08T04:04:30.197Z,101547.75
2023-01-08T04:06:59.151Z,101544.38
2023-01-08T04:09:34.754Z,101543.47
2023-01-08T04:12:05.208Z,101549.59
2023-01-08T04:14:38.019Z,101546.13
2023-01-08T04:17:12.948Z,101541.81
2023-01-08T04:19:41.874Z,101534.84
2023-01-08T04:22:12.074Z,101533.31
2023-01-08T04:24:41.069Z,101533.31
2023-01-08T04:27:09.968Z,101520.28
2023-01-08T04:29:46.328Z,101515.91
2023-01-08T04:32:15.552Z,101508.13
2023-01-08T04:34:44.373Z,101501.13
2023-01-08T04:37:13.366Z,101503.78
2023-01-08T04:39:42.154Z,101505.53
2023-01-08T04:42:14.317Z,101509.03
2023-01-08T04:44:49.306Z,101516.03
2023-01-08T04:47:18.324Z,101521.19
2023-01-08T04:49:47.627Z,101515.22
2023-01-08T04:52:16.571Z,101513.50
2023-01-08T04:54:45.568Z,101518.72
2023-01-08T04:57:14.507Z,101504.84
2023-01-08T04:59:44.807Z,101503.09
2023-01-08T05:02:13.691Z,101497.88
2023-01-08T05:04:46.091Z,101492.72
2023-01-08T05:07:15.130Z,101491.88
2023-01-08T05:09:43.862Z,101479.75
2023-01-08T05:12:15.907Z,101489.22
2023-01-08T05:14:46.281Z,101490.09
2023-01-08T05:17:18.024Z,101488.41
2023-01-08T05:19:47.029Z,101491.88
2023-01-08T05:22:15.807Z,101483.25
2023-01-08T05:24:54.105Z,101490.22
2023-01-08T05:27:23.028Z,101488.44
2023-01-08T05:29:53.424Z,101477.16
2023-01-08T05:32:22.766Z,101464.19
2023-01-08T05:35:14.664Z,101455.47
2023-01-08T05:37:43.686Z,101465.88
2023-01-08T05:40:13.636Z,101463.28
2023-01-08T05:42:42.538Z,101464.16
2023-01-08T05:45:13.151Z,101471.09
2023-01-08T05:47:45.867Z,101473.72
2023-01-08T05:50:14.783Z,101475.47
2023-01-08T05:52:43.571Z,101477.22
2023-01-08T05:55:14.993Z,101488.50
2023-01-08T05:57:44.044Z,101488.59
2023-01-08T06:00:15.908Z,101481.59
2023-01-08T06:02:54.874Z,101472.94
2023-01-08T06:05:24.016Z,101463.41
2023-01-08T06:07:52.932Z,101470.34
2023-01-08T06:10:21.953Z,101466.88
2023-01-08T06:12:53.480Z,101469.47
2023-01-08T06:15:24.335Z,101466.88
2023-01-08T06:17:53.655Z,101466.00
2023-01-08T06:20:22.524Z,101469.50
2023-01-08T06:22:51.489Z,101476.47
2023-01-08T06:25:20.351Z,101475.63
2023-01-08T06:27:53.559Z,101469.56
2023-01-08T06:30:29.065Z,101468.66
2023-01-08T06:33:01.543Z,101459.97
2023-01-08T06:35:30.757Z,101458.22
2023-01-08T06:37:59.714Z,101457.31
2023-01-08T06:40:28.604Z,101459.97
2023-01-08T06:42:57.453Z,101458.25
2023-01-08T06:45:27.963Z,101441.72
2023-01-08T06:47:56.857Z,101439.97
2023-01-08T06:50:25.664Z,101446.06
2023-01-08T06:52:55.502Z,101447.84
2023-01-08T06:55:25.911Z,101461.72
2023-01-08T06:57:56.322Z,101452.19
2023-01-08T07:00:27.674Z,101457.34
2023-01-08T07:02:57.266Z,101441.75
2023-01-08T07:05:26.231Z,101446.13
2023-01-08T07:07:55.629Z,101440.91
2023-01-08T07:10:24.845Z,101445.25
2023-01-08T07:12:53.665Z,101439.16
2023-01-08T07:15:26.631Z,101432.19
2023-01-08T07:17:55.578Z,101442.63
2023-01-08T07:20:24.408Z,101445.25
2023-01-08T07:22:53.268Z,101446.09
2023-01-08T07:25:22.158Z,101457.41
2023-01-08T07:27:51.614Z,101450.47
2023-01-08T07:30:29.771Z,101446.97
2023-01-08T07:33:07.159Z,101444.38
2023-01-08T07:35:37.197Z,101447.00
2023-01-08T07:38:06.618Z,101451.34
2023-01-08T07:40:36.839Z,101446.13
2023-01-08T07:43:06.971Z,101446.13
2023-01-08T07:45:37.086Z,101447.84
2023-01-08T07:48:08.018Z,101447.00
2023-01-08T07:50:43.733Z,101445.25
2023-01-08T07:53:13.863Z,101435.66
2023-01-08T07:55:42.745Z,101428.72
2023-01-08T07:58:12.798Z,101422.63
2023-01-08T08:00:42.287Z,101430.47
2023-01-08T08:03:12.955Z,101434.81
2023-01-08T08:05:46.195Z,101435.69
2023-01-08T08:08:18.265Z,101440.88
2023-01-08T08:10:49.198Z,101428.66
2023-01-08T08:13:19.820Z,101452.13
2023-01-08T08:15:49.906Z,101456.50
2023-01-08T08:18:20.672Z,101457.34
2023-01-08T08:20:52.191Z,101448.66
2023-01-08T08:23:20.984Z,101446.06
2023-01-08T08:25:49.708Z,101453.00
2023-01-08T08:28:18.386Z,101457.34
2023-01-08T08:30:47.133Z,101454.78
2023-01-08T08:33:16.011Z,101459.03
2023-01-08T08:35:51.734Z,101446.81
2023-01-08T08:38:23.159Z,101437.28
2023-01-08T08:40:53.091Z,101429.38
2023-01-08T08:43:22.014Z,101424.13
2023-01-08T08:45:52.766Z,101418.84
2023-01-08T08:48:21.624Z,101417.16
2023-01-08T08:50:54.343Z,101418.03
2023-01-08T08:53:23.213Z,101411.94
2023-01-08T08:55:52.393Z,101417.16
2023-01-08T08:58:21.135Z,101417.19
2023-01-08T09:00:49.915Z,101416.22
2023-01-08T09:03:18.728Z,101408.34
2023-01-08T09:05:47.762Z,101414.34
2023-01-08T09:08:17.768Z,101398.72
2023-01-08T09:10:46.637Z,101390.91
2023-01-08T09:13:17.107Z,101390.09
2023-01-08T09:15:48.909Z,101387.41
2023-01-08T09:18:18.139Z,101389.13
2023-01-08T09:20:46.963Z,101390.94
2023-01-08T09:23:15.728Z,101393.53
2023-01-08T09:25:48.582Z,101383.03
2023-01-08T09:28:17.587Z,101387.31
2023-01-08T09:30:46.178Z,101376.00
2023-01-08T09:33:15.099Z,101364.78
2023-01-08T09:35:45.617Z,101378.66
2023-01-08T09:38:14.497Z,101375.19
2023-01-08T09:40:46.037Z,101369.06
2023-01-08T09:43:20.774Z,101374.22
2023-01-08T09:45:56.775Z,101358.59
2023-01-08T09:48:29.903Z,101361.13
2023-01-08T09:50:59.414Z,101369.00
2023-01-08T09:53:36.043Z,101350.66
2023-01-08T09:56:12.076Z,101344.53
2023-01-08T09:58:46.273Z,101335.78
2023-01-08T10:01:17.379Z,101328.78
2023-01-08T10:03:48.953Z,101337.50
2023-01-08T10:06:18.350Z,101327.00
2023-01-08T10:08:47.747Z,101324.28
2023-01-08T10:11:22.766Z,101320.84
2023-01-08T10:13:55.380Z,101326.03
2023-01-08T10:16:32.043Z,101321.66
2023-01-08T10:19:02.027Z,101325.13
2023-01-08T10:21:34.856Z,101324.16
2023-01-08T10:24:07.273Z,101326.72
2023-01-08T10:26:38.428Z,101327.66
2023-01-08T10:29:15.082Z,101306.72
2023-01-08T10:31:49.662Z,101313.66
2023-01-08T10:34:27.627Z,101310.03
2023-01-08T10:36:58.622Z,101303.81
2023-01-08T10:39:28.836Z,101300.38
2023-01-08T10:42:04.356Z,101289.13
2023-01-08T10:44:38.117Z,101289.16
2023-01-08T10:47:08.017Z,101291.66
2023-01-08T10:49:42.157Z,101289.00
2023-01-08T10:52:28.760Z,101283.03
2023-01-08T10:54:57.553Z,101275.22
2023-01-08T10:57:29.215Z,101268.91
2023-01-08T10:59:59.330Z,101270.72
2023-01-08T11:02:38.391Z,101285.56
2023-01-08T11:05:11.604Z,101271.53
2023-01-08T11:07:41.907Z,101273.25
2023-01-08T11:10:25.089Z,101262.66
2023-01-08T11:12:59.053Z,101260.88
2023-01-08T11:15:35.535Z,101257.38
2023-01-08T11:18:12.905Z,101247.69
2023-01-08T11:20:42.208Z,101247.78
2023-01-08T11:23:18.920Z,101255.59
2023-01-08T11:25:53.765Z,101249.47
2023-01-08T11:28:28.705Z,101254.66
2023-01-08T11:31:06.323Z,101260.72
2023-01-08T11:33:39.147Z,101268.63
2023-01-08T11:36:15.118Z,101262.56
2023-01-08T11:38:43.809Z,101254.53
2023-01-08T11:41:28.565Z,101253.75
2023-01-08T11:44:13.563Z,101258.16
2023-01-08T11:46:49.368Z,101252.81
2023-01-08T11:49:35.109Z,101256.34
2023-01-08T11:52:18.946Z,101245.78
2023-01-08T11:55:32.140Z,101246.69
2023-01-08T11:58:23.083Z,101245.88
2023-01-08T12:01:04.536Z,101236.09
2023-01-08T12:03:38.578Z,101237.00
2023-01-08T12:06:21.873Z,101232.75
2023-01-08T12:09:01.288Z,101233.38
2023-01-08T12:11:32.795Z,101232.44
2023-01-08T12:14:20.549Z,101226.41
2023-01-08T12:17:03.450Z,101232.56
2023-01-08T12:19:49.847Z,101234.16
2023-01-08T12:22:34.287Z,101233.25
2023-01-08T12:25:22.959Z,101240.16
2023-01-08T12:28:08.942Z,101230.75
2023-01-08T12:30:49.434Z,101236.00
2023-01-08T12:33:28.528Z,101237.69
2023-01-08T12:36:03.443Z,101243.09
2023-01-08T12:38:35.458Z,101243.84
2023-01-08T12:41:08.569Z,101235.88
2023-01-08T12:43:46.767Z,101230.63
2023-01-08T12:46:17.274Z,101231.56
2023-01-08T12:48:50.280Z,101227.84
2023-01-08T12:51:30.722Z,101239.41
2023-01-08T12:54:09.070Z,101243.69
2023-01-08T12:56:47.446Z,101239.38
2023-01-08T12:59:33.377Z,101243.84
2023-01-08T13:02:07.092Z,101243.63
2023-01-08T13:04:43.805Z,101239.97
2023-01-08T13:07:22.874Z,101235.81
2023-01-08T13:09:58.864Z,101234.91
2023-01-08T13:12:35.901Z,101219.84
2023-01-08T13:15:05.755Z,101233.16
2023-01-08T13:17:34.508Z,101231.56
2023-01-08T13:20:04.986Z,101223.56
2023-01-08T13:22:36.874Z,101230.63
2023-01-08T13:25:30.058Z,101226.19
2023-01-08T13:27:59.924Z,101228.75
2023-01-08T13:30:39.334Z,101238.56
2023-01-08T13:33:40.040Z,101229.72
2023-01-08T13:36:26.813Z,101229.50
2023-01-08T13:39:24.631Z,101224.41
2023-01-08T13:42:04.856Z,101223.44
2023-01-08T13:44:35.588Z,101223.63
2023-01-08T13:47:08.226Z,101223.81
2023-01-08T13:49:42.617Z,101216.69
2023-01-08T13:52:29.805Z,101217.59
2023-01-08T13:55:01.589Z,101209.50
2023-01-08T13:57:38.668Z,101208.69
2023-01-08T14:00:09.987Z,101220.19
2023-01-08T14:02:50.489Z,101213.81
2023-01-08T14:05:25.786Z,101211.31
2023-01-08T14:07:55.045Z,101219.13
2023-01-08T14:10:26.525Z,101211.06
2023-01-08T14:12:56.308Z,101210.34
2023-01-08T14:15:28.806Z,101206.91
2023-01-08T14:17:58.578Z,101205.28
2023-01-08T14:20:34.446Z,101207.91
2023-01-08T14:23:13.792Z,101208.44
2023-01-08T14:25:44.065Z,101200.72
2023-01-08T14:28:18.568Z,101195.47
2023-01-08T14:30:51.317Z,101184.81
2023-01-08T14:33:24.086Z,101189.91
2023-01-08T14:35:55.247Z,101187.41
2023-01-08T14:38:23.945Z,101188.34
2023-01-08T14:41:02.233Z,101178.03
2023-01-08T14:43:35.949Z,101184.25
2023-01-08T14:46:05.289Z,101182.44
2023-01-08T14:48:42.951Z,101164.75
2023-01-08T14:51:16.749Z,101158.97
2023-01-08T14:53:47.402Z,101151.84
2023-01-08T14:56:20.785Z,101145.72
2023-01-08T14:58:50.159Z,101150.06
2023-01-08T15:01:22.477Z,101149.00
2023-01-08T15:03:53.105Z,101145.06
2023-01-08T15:06:28.633Z,101144.81
2023-01-08T15:08:58.565Z,101138.53
2023-01-08T15:11:31.871Z,101139.44
2023-01-08T15:14:00.747Z,101138.56
2023-01-08T15:16:32.317Z,101132.44
2023-01-08T15:19:07.571Z,101138.63
2023-01-08T15:21:36.863Z,101142.06
2023-01-08T15:24:07.280Z,101140.31
2023-01-08T15:26:43.301Z,101143.56
2023-01-08T15:29:20.368Z,101136.69
2023-01-08T15:31:50.462Z,101136.69
2023-01-08T15:34:20.753Z,101139.16
2023-01-08T15:36:49.734Z,101135.63
2023-01-08T15:39:18.206Z,101136.44
2023-01-08T15:42:05.870Z,101139.00
2023-01-08T15:44:34.347Z,101141.50
2023-01-08T15:47:02.728Z,101133.63
2023-01-08T15:49:31.294Z,101145.91
2023-01-08T15:52:01.122Z,101133.59
2023-01-08T15:54:29.523Z,101137.88
2023-01-08T15:56:59.399Z,101133.44
2023-01-08T15:59:27.929Z,101130.16
2023-01-08T16:01:56.603Z,101131.94
2023-01-08T16:04:25.470Z,101120.59
2023-01-08T16:06:53.966Z,101125.78
2023-01-08T16:09:22.589Z,101123.22
2023-01-08T16:11:52.798Z,101125.00
2023-01-08T16:14:22.786Z,101119.66
2023-01-08T16:16:51.228Z,101119.44
2023-01-08T16:19:19.884Z,101107.09
2023-01-08T16:21:50.377Z,101106.16
2023-01-08T16:24:18.946Z,101094.09
2023-01-08T16:26:47.505Z,101101.88
2023-01-08T16:29:16.086Z,101099.22
2023-01-08T16:31:48.930Z,101098.25
2023-01-08T16:34:18.172Z,101092.06
2023-01-08T16:36:46.644Z,101097.31
2023-01-08T16:39:15.445Z,101097.25
2023-01-08T16:41:44.006Z,101096.53
2023-01-08T16:44:29.133Z,101085.72
2023-01-08T16:47:01.637Z,101075.97
2023-01-08T16:49:34.427Z,101072.63
2023-01-08T16:52:03.491Z,101075.16
2023-01-08T16:54:33.249Z,101077.19
2023-01-08T16:57:02.450Z,101081.16
2023-01-08T16:59:33.471Z,101078.75
2023-01-08T17:02:03.757Z,101067.09
2023-01-08T17:04:32.668Z,101075.13
2023-01-08T17:07:01.355Z,101065.53
2023-01-08T17:09:32.829Z,101063.66
2023-01-08T17:12:01.452Z,101052.13
2023-01-08T17:14:30.273Z,101060.09
2023-01-08T17:16:58.910Z,101057.34
2023-01-08T17:19:29.482Z,101060.09
2023-01-08T17:21:57.943Z,101061.78
2023-01-08T17:24:26.527Z,101049.41
2023-01-08T17:26:55.125Z,101052.81
2023-01-08T17:29:23.608Z,101060.94
2023-01-08T17:31:52.153Z,101068.00
2023-01-08T17:34:20.821Z,101058.97
2023-01-08T17:36:50.711Z,101057.13
2023-01-08T17:39:19.341Z,101054.75
2023-01-08T17:42:05.203Z,101052.81
2023-01-08T17:44:33.782Z,101050.25
2023-01-08T17:47:02.303Z,101048.41
2023-01-08T17:49:31.295Z,101047.56
2023-01-08T17:52:01.612Z,101041.53
2023-01-08T17:54:31.128Z,101036.19
2023-01-08T17:56:59.641Z,101036.03
2023-01-08T17:59:28.191Z,101034.38
2023-01-08T18:01:57.840Z,101042.03
2023-01-08T18:04:26.827Z,101026.47
2023-01-08T18:06:55.434Z,101024.84
2023-01-08T18:09:25.811Z,101018.63
2023-01-08T18:11:55.273Z,101013.31
2023-01-08T18:14:24.011Z,101013.66
2023-01-08T18:16:53.384Z,101013.50
2023-01-08T18:19:22.225Z,101022.13
2023-01-08T18:21:50.719Z,101015.63
2023-01-08T18:24:19.849Z,101008.41
2023-01-08T18:26:50.095Z,101017.09
2023-01-08T18:29:18.708Z,101014.25
2023-01-08T18:31:47.244Z,101013.47
2023-01-08T18:34:15.846Z,101006.47
2023-01-08T18:36:44.314Z,101007.13
2023-01-08T18:39:13.531Z,101007.81
2023-01-08T18:41:59.783Z,101003.66
2023-01-08T18:44:29.893Z,101003.84
2023-01-08T18:46:58.362Z,101005.44
2023-01-08T18:49:27.738Z,101007.97
2023-01-08T18:51:56.182Z,100998.28
2023-01-08T18:54:24.731Z,101001.13
2023-01-08T18:56:53.206Z,101000.28
2023-01-08T18:59:21.676Z,100995.81
2023-01-08T19:01:52.584Z,100998.31
2023-01-08T19:04:21.171Z,100990.63
2023-01-08T19:06:49.873Z,100996.63
2023-01-08T19:09:18.402Z,100990.22
2023-01-08T19:11:47.060Z,100992.69
2023-01-08T19:14:15.803Z,100991.00
2023-01-08T19:16:51.540Z,100982.09
2023-01-08T19:19:21.608Z,100987.25
2023-01-08T19:21:50.152Z,100985.81
2023-01-08T19:24:18.763Z,100983.78
2023-01-08T19:26:47.253Z,100977.09
2023-01-08T19:29:15.819Z,100974.38
2023-01-08T19:31:44.434Z,100975.22
2023-01-08T19:34:13.076Z,100967.16
2023-01-08T19:36:43.827Z,100958.63
2023-01-08T19:39:12.543Z,100955.34
2023-01-08T19:41:58.675Z,100955.47
2023-01-08T19:44:27.181Z,100950.28
2023-01-08T19:46:55.890Z,100954.72
2023-01-08T19:49:25.852Z,100950.38
2023-01-08T19:51:56.122Z,100953.78
2023-01-08T19:54:26.112Z,100947.75
2023-01-08T19:56:55.058Z,100948.31
2023-01-08T19:59:24.914Z,100943.72
2023-01-08T20:01:53.621Z,100935.84
2023-01-08T20:04:22.433Z,100943.16
2023-01-08T20:06:52.508Z,100942.13
2023-01-08T20:09:22.482Z,100957.00
2023-01-08T20:11:50.956Z,100962.25
2023-01-08T20:14:21.067Z,100961.59
2023-01-08T20:16:49.905Z,100953.84
2023-01-08T20:19:18.504Z,100940.66
2023-01-08T20:21:47.394Z,100945.88
2023-01-08T20:24:16.982Z,100944.34
2023-01-08T20:26:47.814Z,100936.31
2023-01-08T20:29:18.452Z,100932.25
2023-01-08T20:31:47.402Z,100937.59
2023-01-08T20:34:17.817Z,100931.44
2023-01-08T20:36:46.924Z,100931.44
2023-01-08T20:39:18.092Z,100932.25
2023-01-08T20:41:55.444Z,100927.13
2023-01-08T20:44:32.548Z,100928.03
2023-01-08T20:47:01.672Z,100925.34
2023-01-08T20:49:32.257Z,100926.31
2023-01-08T20:52:01.058Z,100918.47
2023-01-08T20:54:30.932Z,100911.47
2023-01-08T20:57:02.296Z,100917.63
2023-01-08T20:59:32.018Z,100918.50
2023-01-08T21:02:01.080Z,100911.59
2023-01-08T21:04:30.010Z,100901.13
2023-01-08T21:06:58.795Z,100901.97
2023-01-08T21:09:27.434Z,100901.72
2023-01-08T21:11:56.140Z,100893.25
2023-01-08T21:14:26.526Z,100893.25
2023-01-08T21:16:55.614Z,100897.50
2023-01-08T21:19:24.218Z,100905.34
2023-01-08T21:21:52.974Z,100904.53
2023-01-08T21:24:22.137Z,100893.28
2023-01-08T21:26:50.756Z,100896.81
2023-01-08T21:29:21.163Z,100890.72
2023-01-08T21:31:51.405Z,100883.72
2023-01-08T21:34:20.578Z,100884.78
2023-01-08T21:36:49.158Z,100887.44
2023-01-08T21:39:18.117Z,100896.97
2023-01-08T21:42:04.207Z,100888.19
2023-01-08T21:44:50.825Z,100896.25
2023-01-08T21:47:21.248Z,100903.94
2023-01-08T21:49:50.288Z,100905.59
2023-01-08T21:52:36.687Z,100908.53
2023-01-08T21:55:05.833Z,100907.56
2023-01-08T21:57:39.930Z,100905.97
2023-01-08T22:00:11.313Z,100910.19
2023-01-08T22:02:41.721Z,100908.38
2023-01-08T22:05:11.351Z,100895.31
2023-01-08T22:07:40.255Z,100903.16
2023-01-08T22:10:10.033Z,100897.94
2023-01-08T22:12:39.789Z,100905.72
2023-01-08T22:15:09.910Z,100912.03
2023-01-08T22:17:38.982Z,100914.50
2023-01-08T22:20:10.652Z,100913.00
2023-01-08T22:22:39.630Z,100902.25
2023-01-08T22:25:09.581Z,100887.25
2023-01-08T22:27:38.965Z,100882.00
2023-01-08T22:30:08.751Z,100876.78
2023-01-08T22:32:37.428Z,100890.81
2023-01-08T22:35:06.733Z,100893.53
2023-01-08T22:37:37.868Z,100898.66
2023-01-08T22:40:06.522Z,100891.59
2023-01-08T22:42:35.092Z,100892.41
2023-01-08T22:45:03.912Z,100890.38
2023-01-08T22:47:32.549Z,100886.16
2023-01-08T22:50:01.486Z,100888.34
2023-01-08T22:52:30.426Z,100891.19
2023-01-08T22:55:00.717Z,100889.28
2023-01-08T22:57:29.554Z,100886.63
2023-01-08T22:59:58.206Z,100888.31
2023-01-08T23:02:26.994Z,100887.50
2023-01-08T23:04:56.220Z,100881.22
2023-01-08T23:07:24.951Z,100882.06
2023-01-08T23:09:53.431Z,100887.22
2023-01-08T23:12:23.731Z,100886.28
2023-01-08T23:14:52.455Z,100891.31
2023-01-08T23:17:21.170Z,100888.91
2023-01-08T23:19:49.753Z,100894.91
2023-01-08T23:22:18.453Z,100896.78
2023-01-08T23:24:46.906Z,100893.22
2023-01-08T23:27:15.546Z,100890.28
2023-01-08T23:29:45.543Z,100886.84
2023-01-08T23:32:14.110Z,100900.78
2023-01-08T23:34:42.723Z,100896.41
2023-01-08T23:37:11.988Z,100887.66
2023-01-08T23:39:40.668Z,100887.69
2023-01-08T23:42:09.431Z,100888.50
2023-01-08T23:44:38.353Z,100886.53
2023-01-08T23:47:08.521Z,100890.00
2023-01-08T23:49:37.161Z,100885.66
2023-01-08T23:52:06.384Z,100885.78
2023-01-08T23:54:36.018Z,100889.16
2023-01-08T23:57:06.260Z,100890.84
2023-01-08T23:59:35.339Z,100883.91
